createdAt,value
2023-03-15T00:02:08.224Z,7.70
2023-03-15T00:04:39.472Z,7.00
2023-03-15T00:07:07.854Z,9.00
2023-03-15T00:09:36.127Z,5.90
2023-03-15T00:12:12.394Z,9.40
2023-03-15T00:14:41.388Z,7.70
2023-03-15T00:17:12.042Z,6.50
2023-03-15T00:19:41.217Z,5.20
2023-03-15T00:22:10.314Z,7.30
2023-03-15T00:24:38.693Z,8.20
2023-03-15T00:27:07.691Z,5.90
2023-03-15T00:29:36.649Z,10.80
2023-03-15T00:32:05.369Z,7.40
2023-03-15T00:34:34.022Z,6.40
2023-03-15T00:37:02.434Z,6.40
2023-03-15T00:39:30.814Z,9.00
2023-03-15T00:41:59.369Z,6.90
2023-03-15T00:44:29.317Z,8.50
2023-03-15T00:46:58.128Z,8.20
2023-03-15T00:49:34.166Z,7.90
2023-03-15T00:52:03.764Z,5.50
2023-03-15T00:54:35.833Z,5.70
2023-03-15T00:57:04.010Z,5.20
2023-03-15T00:59:35.367Z,6.30
2023-03-15T01:02:05.887Z,5.30
2023-03-15T01:04:36.490Z,7.60
2023-03-15T01:07:05.614Z,6.70
2023-03-15T01:09:33.789Z,9.20
2023-03-15T01:12:02.281Z,7.90
2023-03-15T01:14:35.566Z,6.20
2023-03-15T01:17:07.431Z,6.50
2023-03-15T01:19:37.273Z,6.70
2023-03-15T01:22:05.825Z,6.90
2023-03-15T01:24:35.124Z,5.20
2023-03-15T01:27:03.711Z,6.90
2023-03-15T01:29:32.087Z,5.70
2023-03-15T01:32:00.876Z,10.30
2023-03-15T01:34:29.869Z,6.40
2023-03-15T01:37:03.469Z,5.70
2023-03-15T01:39:42.912Z,5.60
2023-03-15T01:42:12.218Z,8.00
2023-03-15T01:44:52.985Z,6.60
2023-03-15T01:47:21.876Z,7.30
2023-03-15T01:50:09.068Z,8.60
2023-03-15T01:52:38.700Z,6.00
2023-03-15T01:55:16.002Z,6.80
2023-03-15T01:58:07.205Z,5.20
2023-03-15T02:00:38.499Z,6.40
2023-03-15T02:03:14.644Z,5.30
2023-03-15T02:05:46.454Z,7.00
2023-03-15T02:08:19.866Z,6.00
2023-03-15T02:10:53.732Z,7.50
2023-03-15T02:13:24.322Z,9.40
2023-03-15T02:16:01.155Z,7.60
2023-03-15T02:18:36.116Z,6.50
2023-03-15T02:21:24.075Z,6.40
2023-03-15T02:24:21.722Z,6.20
2023-03-15T02:26:53.321Z,6.60
2023-03-15T02:29:23.625Z,6.30
2023-03-15T02:31:53.575Z,8.70
2023-03-15T02:34:27.030Z,7.30
2023-03-15T02:36:56.044Z,9.40
2023-03-15T02:39:25.821Z,7.40
2023-03-15T02:41:58.334Z,9.00
2023-03-15T02:46:31.260Z,5.90
2023-03-15T02:49:02.243Z,11.60
2023-03-15T02:51:32.667Z,5.50
2023-03-15T02:54:01.258Z,7.90
2023-03-15T02:56:35.366Z,9.20
2023-03-15T02:59:04.773Z,7.50
2023-03-15T03:01:37.554Z,8.80
2023-03-15T03:04:06.239Z,9.90
2023-03-15T03:06:35.237Z,6.10
2023-03-15T03:09:04.839Z,8.90
2023-03-15T03:11:33.532Z,6.60
2023-03-15T03:14:03.874Z,9.50
2023-03-15T03:16:32.670Z,8.40
2023-03-15T03:19:02.247Z,7.40
2023-03-15T03:21:38.100Z,10.00
2023-03-15T03:24:07.394Z,7.50
2023-03-15T03:26:35.578Z,5.50
2023-03-15T03:29:07.436Z,6.50
2023-03-15T03:31:36.118Z,7.10
2023-03-15T03:34:16.273Z,8.40
2023-03-15T03:36:45.889Z,6.70
2023-03-15T03:39:16.836Z,5.60
2023-03-15T03:41:46.633Z,8.60
2023-03-15T03:44:16.857Z,7.50
2023-03-15T03:46:45.745Z,8.00
2023-03-15T03:49:15.156Z,9.60
2023-03-15T03:51:43.632Z,11.00
2023-03-15T03:54:13.242Z,8.50
2023-03-15T03:56:41.931Z,8.90
2023-03-15T03:59:11.452Z,9.30
2023-03-15T04:01:49.314Z,10.30
2023-03-15T04:04:17.722Z,8.90
2023-03-15T04:06:46.890Z,10.30
2023-03-15T04:09:18.440Z,9.60
2023-03-15T04:11:52.943Z,8.90
2023-03-15T04:14:25.748Z,8.70
2023-03-15T04:16:55.967Z,9.60
2023-03-15T04:19:28.750Z,13.20
2023-03-15T04:21:57.333Z,13.00
2023-03-15T04:24:41.115Z,11.10
2023-03-15T04:27:20.075Z,12.20
2023-03-15T04:30:06.979Z,8.60
2023-03-15T04:33:05.503Z,8.70
2023-03-15T04:35:48.103Z,10.40
2023-03-15T04:38:39.562Z,11.00
2023-03-15T04:41:28.319Z,9.00
2023-03-15T04:44:06.445Z,11.60
2023-03-15T04:46:55.569Z,11.90
2023-03-15T04:49:47.985Z,11.00
2023-03-15T04:52:32.645Z,9.30
2023-03-15T04:55:39.531Z,8.10
2023-03-15T04:58:37.096Z,7.20
2023-03-15T05:01:31.594Z,9.10
2023-03-15T05:04:18.775Z,8.20
2023-03-15T05:07:13.962Z,10.00
2023-03-15T05:09:56.321Z,13.10
2023-03-15T05:12:42.085Z,11.80
2023-03-15T05:15:33.588Z,10.60
2023-03-15T05:18:22.444Z,9.60
2023-03-15T05:21:08.746Z,10.50
2023-03-15T05:23:48.961Z,8.30
2023-03-15T05:26:36.694Z,8.10
2023-03-15T05:29:23.714Z,8.40
2023-03-15T05:32:27.068Z,7.70
2023-03-15T05:35:14.407Z,9.80
2023-03-15T05:38:03.883Z,8.70
2023-03-15T05:41:02.775Z,10.10
2023-03-15T05:43:48.459Z,13.40
2023-03-15T05:46:36.266Z,10.80
2023-03-15T05:49:21.163Z,13.80
2023-03-15T05:52:20.589Z,11.30
2023-03-15T05:55:10.834Z,10.30
2023-03-15T05:57:58.336Z,13.80
2023-03-15T06:01:05.269Z,9.50
2023-03-15T06:04:01.012Z,9.40
2023-03-15T06:06:33.780Z,10.30
2023-03-15T06:09:03.329Z,11.20
2023-03-15T06:11:31.715Z,9.00
2023-03-15T06:14:01.110Z,10.50
2023-03-15T06:16:44.714Z,8.40
2023-03-15T06:19:13.749Z,10.10
2023-03-15T06:21:43.552Z,9.20
2023-03-15T06:24:22.994Z,8.90
2023-03-15T06:26:51.471Z,7.90
2023-03-15T06:29:19.742Z,11.80
2023-03-15T06:31:53.093Z,9.70
2023-03-15T06:34:22.145Z,9.70
2023-03-15T06:36:54.004Z,8.00
2023-03-15T06:39:24.509Z,9.90
2023-03-15T06:41:59.774Z,12.20
2023-03-15T06:44:31.225Z,15.60
2023-03-15T06:49:36.992Z,11.60
2023-03-15T06:52:08.141Z,17.20
2023-03-15T06:54:40.316Z,18.70
2023-03-15T06:57:14.359Z,17.50
2023-03-15T06:59:44.243Z,16.40
2023-03-15T07:02:19.786Z,14.50
2023-03-15T07:04:49.656Z,16.60
2023-03-15T07:07:23.657Z,11.90
2023-03-15T07:09:55.196Z,12.00
2023-03-15T07:12:27.483Z,17.50
2023-03-15T07:15:17.464Z,21.80
2023-03-15T07:17:48.836Z,14.10
2023-03-15T07:20:18.001Z,15.30
2023-03-15T07:22:54.829Z,15.50
2023-03-15T07:25:26.348Z,12.50
2023-03-15T07:27:55.554Z,12.10
2023-03-15T07:30:26.079Z,10.90
2023-03-15T07:32:54.541Z,11.80
2023-03-15T07:35:33.786Z,11.50
2023-03-15T07:38:12.009Z,13.90
2023-03-15T07:40:48.729Z,14.00
2023-03-15T07:43:23.198Z,12.20
2023-03-15T07:45:54.009Z,14.60
2023-03-15T07:48:27.324Z,9.40
2023-03-15T07:50:57.032Z,12.00
2023-03-15T07:56:08.447Z,10.80
2023-03-15T07:58:36.933Z,16.40
2023-03-15T08:01:08.164Z,12.10
2023-03-15T08:03:37.373Z,10.60
2023-03-15T08:06:07.173Z,11.60
2023-03-15T08:11:07.320Z,12.30
2023-03-15T08:13:38.263Z,11.30
2023-03-15T08:16:11.208Z,12.50
2023-03-15T08:18:46.995Z,13.80
2023-03-15T08:21:18.443Z,12.70
2023-03-15T08:23:50.111Z,11.00
2023-03-15T08:26:24.683Z,13.20
2023-03-15T08:28:59.666Z,16.20
2023-03-15T08:31:28.723Z,13.60
2023-03-15T08:33:59.601Z,15.50
2023-03-15T08:36:40.171Z,13.00
2023-03-15T08:39:09.152Z,18.20
2023-03-15T08:41:38.555Z,13.40
2023-03-15T08:44:14.203Z,13.10
2023-03-15T08:46:43.727Z,11.80
2023-03-15T08:49:17.616Z,11.80
2023-03-15T08:51:58.814Z,13.20
2023-03-15T08:54:27.892Z,11.10
2023-03-15T08:57:00.031Z,16.00
2023-03-15T08:59:32.231Z,12.30
2023-03-15T09:02:01.523Z,12.20
2023-03-15T09:04:34.051Z,14.20
2023-03-15T09:07:02.798Z,12.20
2023-03-15T09:09:38.910Z,13.90
2023-03-15T09:12:08.870Z,11.10
2023-03-15T09:14:39.054Z,11.40
2023-03-15T09:19:39.946Z,12.90
2023-03-15T09:22:16.497Z,10.90
2023-03-15T09:25:20.477Z,9.30
2023-03-15T09:27:56.420Z,11.20
2023-03-15T09:30:35.345Z,9.60
2023-03-15T09:33:04.375Z,10.70
2023-03-15T09:35:38.111Z,11.60
2023-03-15T09:38:06.497Z,10.40
2023-03-15T09:41:04.582Z,12.30
2023-03-15T09:43:51.602Z,13.10
2023-03-15T09:46:49.271Z,12.50
2023-03-15T09:49:59.422Z,7.20
2023-03-15T09:52:37.419Z,9.50
2023-03-15T09:55:16.858Z,10.00
2023-03-15T09:58:20.578Z,11.50
2023-03-15T10:00:53.072Z,14.60
2023-03-15T10:03:55.451Z,11.40
2023-03-15T10:06:29.084Z,15.50
2023-03-15T10:09:01.188Z,8.30
2023-03-15T10:11:58.754Z,7.40
2023-03-15T10:15:10.124Z,12.60
2023-03-15T10:17:52.861Z,13.20
2023-03-15T10:20:24.108Z,12.80
2023-03-15T10:23:14.802Z,8.00
2023-03-15T10:28:31.332Z,9.10
2023-03-15T10:31:41.123Z,8.80
2023-03-15T10:34:18.716Z,9.40
2023-03-15T10:36:54.645Z,12.40
2023-03-15T10:39:25.300Z,12.70
2023-03-15T10:41:53.943Z,8.00
2023-03-15T10:44:45.768Z,11.40
2023-03-15T10:47:23.742Z,13.80
2023-03-15T10:49:58.825Z,8.80
2023-03-15T10:52:55.655Z,12.20
2023-03-15T10:55:33.089Z,11.10
2023-03-15T10:58:27.861Z,13.30
2023-03-15T11:01:02.054Z,13.00
2023-03-15T11:03:40.848Z,13.40
2023-03-15T11:06:21.415Z,18.90
2023-03-15T11:09:12.162Z,10.40
2023-03-15T11:12:01.433Z,11.00
2023-03-15T11:14:58.933Z,11.10
2023-03-15T11:17:30.105Z,10.80
2023-03-15T11:20:12.762Z,10.50
2023-03-15T11:22:46.868Z,8.80
2023-03-15T11:25:16.464Z,11.60
2023-03-15T11:27:52.213Z,12.10
2023-03-15T11:30:24.585Z,10.10
2023-03-15T11:32:53.652Z,11.50
2023-03-15T11:35:32.956Z,11.30
2023-03-15T11:38:15.565Z,12.50
2023-03-15T11:40:47.791Z,11.70
2023-03-15T11:43:21.052Z,10.90
2023-03-15T11:46:15.695Z,9.40
2023-03-15T11:48:58.202Z,9.10
2023-03-15T11:51:27.098Z,11.50
2023-03-15T11:54:18.036Z,12.00
2023-03-15T11:59:32.977Z,10.20
2023-03-15T12:02:15.035Z,9.10
2023-03-15T12:04:46.255Z,12.70
2023-03-15T12:07:20.063Z,11.20
2023-03-15T12:09:53.087Z,10.10
2023-03-15T12:12:25.601Z,9.00
2023-03-15T12:15:23.000Z,9.20
2023-03-15T12:20:41.292Z,10.80
2023-03-15T12:23:22.891Z,11.40
2023-03-15T12:28:33.946Z,9.80
2023-03-15T12:31:13.420Z,9.30
2023-03-15T12:33:51.595Z,9.90
2023-03-15T12:36:39.644Z,14.60
2023-03-15T12:39:16.897Z,13.50
2023-03-15T12:41:46.920Z,9.20
2023-03-15T12:44:40.277Z,8.40
2023-03-15T12:47:12.228Z,11.40
2023-03-15T12:49:48.194Z,13.40
2023-03-15T12:52:19.540Z,9.60
2023-03-15T12:57:36.194Z,11.10
2023-03-15T13:00:17.902Z,13.40
2023-03-15T13:05:28.992Z,13.80
2023-03-15T13:08:22.626Z,14.80
2023-03-15T13:11:18.642Z,12.70
2023-03-15T13:13:53.111Z,11.60
2023-03-15T13:16:45.100Z,9.40
2023-03-15T13:19:18.192Z,11.20
2023-03-15T13:21:53.734Z,10.80
2023-03-15T13:24:37.883Z,10.00
2023-03-15T13:27:20.304Z,14.70
2023-03-15T13:29:49.293Z,10.60
2023-03-15T13:32:23.149Z,12.50
2023-03-15T13:34:55.055Z,10.00
2023-03-15T13:37:29.416Z,12.40
2023-03-15T13:40:06.050Z,11.40
2023-03-15T13:42:42.053Z,12.50
2023-03-15T13:45:13.166Z,11.40
2023-03-15T13:50:16.484Z,7.80
2023-03-15T13:52:45.756Z,10.40
2023-03-15T13:55:18.127Z,10.00
2023-03-15T13:57:46.530Z,12.40
2023-03-15T14:00:19.330Z,11.30
2023-03-15T14:02:49.183Z,11.20
2023-03-15T14:05:19.257Z,14.30
2023-03-15T14:07:51.354Z,13.10
2023-03-15T14:10:31.324Z,14.20
2023-03-15T14:13:30.053Z,16.30
2023-03-15T14:16:02.979Z,11.00
2023-03-15T14:18:36.879Z,13.10
2023-03-15T14:21:31.644Z,9.00
2023-03-15T14:24:05.996Z,9.30
2023-03-15T14:26:35.073Z,10.20
2023-03-15T14:29:13.985Z,13.10
2023-03-15T14:34:25.955Z,13.90
2023-03-15T14:36:57.975Z,14.40
2023-03-15T14:39:32.925Z,12.70
2023-03-15T14:42:02.212Z,15.00
2023-03-15T14:44:32.639Z,10.60
2023-03-15T14:47:01.116Z,10.20
2023-03-15T14:49:31.442Z,18.60
2023-03-15T14:52:01.918Z,13.70
2023-03-15T14:54:37.114Z,14.30
2023-03-15T14:57:05.591Z,12.00
2023-03-15T14:59:36.752Z,14.40
2023-03-15T15:02:06.983Z,11.50
2023-03-15T15:05:40.445Z,12.70
2023-03-15T15:08:12.828Z,16.40
2023-03-15T15:10:46.232Z,13.10
2023-03-15T15:13:26.133Z,11.00
2023-03-15T15:15:56.613Z,13.80
2023-03-15T15:18:27.793Z,15.00
2023-03-15T15:20:56.385Z,13.10
2023-03-15T15:23:33.672Z,14.00
2023-03-15T15:26:03.328Z,15.70
2023-03-15T15:28:36.960Z,14.70
2023-03-15T15:31:07.630Z,14.60
2023-03-15T15:33:34.929Z,18.40
2023-03-15T15:36:07.123Z,18.90
2023-03-15T15:38:37.990Z,21.40
2023-03-15T15:41:10.698Z,22.90
2023-03-15T15:43:37.600Z,25.30
2023-03-15T15:46:09.217Z,24.60
2023-03-15T15:48:41.315Z,30.00
2023-03-15T15:51:23.685Z,28.70
2023-03-15T15:53:54.450Z,22.20
2023-03-15T15:56:47.149Z,21.80
2023-03-15T15:59:15.734Z,22.70
2023-03-15T16:01:59.058Z,20.30
2023-03-15T16:04:29.759Z,25.00
2023-03-15T16:06:58.902Z,26.20
2023-03-15T16:09:27.171Z,25.90
2023-03-15T16:11:56.388Z,23.50
2023-03-15T16:14:27.123Z,25.30
2023-03-15T16:16:54.050Z,24.40
2023-03-15T16:19:22.122Z,25.90
2023-03-15T16:21:49.792Z,32.90
2023-03-15T16:24:19.904Z,37.20
2023-03-15T16:26:47.053Z,42.60
2023-03-15T16:29:26.598Z,31.60
2023-03-15T16:32:01.275Z,36.40
2023-03-15T16:34:36.257Z,32.80
2023-03-15T16:37:05.870Z,42.30
2023-03-15T16:39:33.736Z,41.00
2023-03-15T16:42:04.893Z,36.40
2023-03-15T16:44:33.560Z,40.10
2023-03-15T16:47:00.504Z,34.60
2023-03-15T16:49:28.374Z,41.20
2023-03-15T16:51:55.625Z,43.00
2023-03-15T16:54:40.273Z,33.20
2023-03-15T16:57:16.650Z,46.20
2023-03-15T16:59:44.722Z,33.90
2023-03-15T17:02:22.725Z,43.80
2023-03-15T17:04:49.787Z,33.50
2023-03-15T17:07:19.080Z,30.50
2023-03-15T17:09:47.053Z,36.10
2023-03-15T17:12:20.656Z,32.20
2023-03-15T17:14:49.241Z,31.30
2023-03-15T17:17:16.286Z,34.20
2023-03-15T17:19:45.127Z,32.60
2023-03-15T17:22:15.576Z,28.50
2023-03-15T17:24:43.881Z,26.00
2023-03-15T17:27:34.997Z,27.30
2023-03-15T17:30:02.865Z,23.70
2023-03-15T17:32:34.183Z,24.70
2023-03-15T17:35:01.767Z,30.70
2023-03-15T17:37:29.227Z,29.40
2023-03-15T17:39:56.273Z,33.50
2023-03-15T17:42:23.627Z,27.10
2023-03-15T17:44:53.752Z,23.40
2023-03-15T17:47:20.742Z,26.70
2023-03-15T17:49:47.847Z,27.40
2023-03-15T17:52:20.318Z,25.60
2023-03-15T17:54:47.879Z,28.90
2023-03-15T17:57:16.694Z,30.50
2023-03-15T17:59:44.578Z,27.00
2023-03-15T18:02:14.495Z,32.90
2023-03-15T18:04:41.514Z,30.90
2023-03-15T18:07:08.659Z,35.40
2023-03-15T18:09:39.492Z,32.50
2023-03-15T18:12:10.325Z,28.80
2023-03-15T18:14:38.394Z,36.80
2023-03-15T18:17:10.085Z,37.80
2023-03-15T18:19:38.438Z,34.20
2023-03-15T18:22:05.272Z,42.60
2023-03-15T18:24:38.162Z,40.30
2023-03-15T18:27:10.432Z,42.60
2023-03-15T18:29:39.841Z,38.80
2023-03-15T18:32:07.491Z,41.90
2023-03-15T18:34:38.237Z,33.70
2023-03-15T18:37:09.280Z,45.20
2023-03-15T18:39:38.164Z,36.50
2023-03-15T18:42:12.691Z,34.90
2023-03-15T18:44:44.235Z,30.20
2023-03-15T18:47:11.590Z,29.10
2023-03-15T18:49:55.510Z,25.80
2023-03-15T18:52:28.936Z,28.10
2023-03-15T18:57:30.340Z,32.60
2023-03-15T18:59:58.169Z,31.40
2023-03-15T19:02:28.455Z,33.20
2023-03-15T19:04:58.775Z,37.00
2023-03-15T19:07:29.471Z,34.90
2023-03-15T19:09:57.548Z,32.80
2023-03-15T19:12:25.306Z,33.50
2023-03-15T19:14:57.050Z,33.10
2023-03-15T19:17:24.921Z,38.60
2023-03-15T19:19:52.163Z,32.90
2023-03-15T19:22:20.646Z,38.10
2023-03-15T19:24:47.731Z,39.90
2023-03-15T19:27:18.118Z,44.00
2023-03-15T19:29:49.526Z,39.20
2023-03-15T19:32:17.090Z,35.80
2023-03-15T19:34:44.645Z,37.00
2023-03-15T19:37:19.164Z,41.00
2023-03-15T19:39:49.081Z,37.20
2023-03-15T19:42:16.107Z,34.60
2023-03-15T19:44:49.887Z,31.80
2023-03-15T19:47:16.817Z,34.30
2023-03-15T19:49:45.058Z,33.20
2023-03-15T19:52:13.951Z,36.70
2023-03-15T19:54:41.097Z,36.20
2023-03-15T19:57:07.942Z,37.00
2023-03-15T19:59:41.849Z,35.50
2023-03-15T20:02:11.156Z,38.50
2023-03-15T20:04:38.820Z,33.20
2023-03-15T20:07:07.398Z,31.10
2023-03-15T20:09:38.240Z,32.80
2023-03-15T20:12:11.220Z,30.40
2023-03-15T20:14:40.317Z,31.20
2023-03-15T20:17:07.579Z,32.30
2023-03-15T20:19:36.472Z,34.70
2023-03-15T20:22:03.822Z,30.60
2023-03-15T20:24:31.387Z,31.20
2023-03-15T20:26:58.635Z,33.60
2023-03-15T20:29:26.196Z,28.30
2023-03-15T20:31:53.310Z,30.20
2023-03-15T20:34:21.827Z,39.00
2023-03-15T20:36:48.930Z,31.40
2023-03-15T20:39:17.980Z,38.60
2023-03-15T20:41:45.490Z,37.30
2023-03-15T20:44:12.398Z,43.90
2023-03-15T20:46:40.656Z,42.20
2023-03-15T20:49:07.826Z,38.60
2023-03-15T20:51:34.996Z,34.30
2023-03-15T20:54:04.560Z,36.80
2023-03-15T20:56:36.325Z,31.20
2023-03-15T20:59:03.261Z,42.20
2023-03-15T21:01:31.541Z,33.70
2023-03-15T21:03:59.691Z,36.00
2023-03-15T21:06:26.670Z,43.80
2023-03-15T21:08:54.709Z,44.80
2023-03-15T21:11:22.603Z,45.10
2023-03-15T21:13:49.686Z,42.80
2023-03-15T21:16:17.025Z,34.30
2023-03-15T21:18:51.361Z,33.30
2023-03-15T21:21:18.926Z,40.20
2023-03-15T21:23:45.763Z,48.20
2023-03-15T21:26:14.291Z,52.70
2023-03-15T21:28:47.858Z,59.30
2023-03-15T21:31:15.118Z,63.60
2023-03-15T21:33:43.305Z,52.70
2023-03-15T21:36:10.108Z,47.70
2023-03-15T21:38:39.001Z,56.40
2023-03-15T21:41:08.603Z,59.70
2023-03-15T21:43:36.180Z,64.60
2023-03-15T21:46:06.625Z,69.10
2023-03-15T21:48:36.505Z,82.00
2023-03-15T21:51:04.603Z,83.10
2023-03-15T21:53:34.188Z,62.30
2023-03-15T21:56:01.855Z,70.40
2023-03-15T21:58:30.532Z,89.00
2023-03-15T22:01:03.973Z,98.00
2023-03-15T22:03:32.735Z,104.50
2023-03-15T22:06:01.816Z,135.10
2023-03-15T22:08:33.266Z,129.60
2023-03-15T22:11:00.723Z,147.70
2023-03-15T22:13:36.478Z,157.40
2023-03-15T22:16:04.703Z,165.80
2023-03-15T22:18:32.322Z,151.60
2023-03-15T22:21:01.732Z,138.40
2023-03-15T22:23:28.767Z,112.10
2023-03-15T22:25:56.956Z,93.20
2023-03-15T22:28:25.317Z,89.50
2023-03-15T22:30:53.042Z,75.90
2023-03-15T22:33:22.502Z,83.50
2023-03-15T22:35:55.996Z,99.90
2023-03-15T22:38:24.276Z,81.80
2023-03-15T22:41:00.144Z,94.50
2023-03-15T22:43:27.227Z,89.60
2023-03-15T22:48:26.696Z,64.20
2023-03-15T22:51:00.918Z,70.80
2023-03-15T22:53:31.378Z,66.10
2023-03-15T22:56:04.214Z,66.20
2023-03-15T22:58:35.912Z,73.70
2023-03-15T23:01:02.735Z,68.80
2023-03-15T23:03:30.796Z,66.70
2023-03-15T23:05:58.153Z,71.80
2023-03-15T23:08:25.308Z,63.10
2023-03-15T23:10:55.902Z,60.30
2023-03-15T23:13:23.804Z,65.70
2023-03-15T23:15:51.107Z,59.70
2023-03-15T23:18:19.539Z,57.60
2023-03-15T23:20:52.808Z,71.00
2023-03-15T23:23:20.807Z,66.70
2023-03-15T23:25:50.308Z,59.10
2023-03-15T23:28:18.858Z,55.90
2023-03-15T23:30:46.768Z,63.50
2023-03-15T23:33:13.879Z,54.00
2023-03-15T23:35:43.450Z,47.90
2023-03-15T23:38:13.245Z,49.90
2023-03-15T23:40:41.509Z,50.40
2023-03-15T23:43:08.966Z,54.10
2023-03-15T23:45:35.913Z,49.20
2023-03-15T23:48:05.972Z,48.40
2023-03-15T23:50:34.414Z,42.90
2023-03-15T23:53:01.363Z,35.00
2023-03-15T23:55:28.826Z,35.00
2023-03-15T23:57:55.763Z,35.00
